createdAt,value
2022-12-18T00:00:45.126Z,102409.16
2022-12-18T00:02:46.898Z,102408.25
2022-12-18T00:04:48.771Z,102408.22
2022-12-18T00:06:50.719Z,102407.44
2022-12-18T00:08:52.979Z,102417.78
2022-12-18T00:10:54.873Z,102409.00
2022-12-18T00:13:05.177Z,102359.16
2022-12-18T00:15:10.223Z,102411.59
2022-12-18T00:17:12.175Z,102413.31
2022-12-18T00:19:15.565Z,102402.03
2022-12-18T00:21:17.813Z,102417.53
2022-12-18T00:23:19.675Z,102394.41
2022-12-18T00:25:21.927Z,102428.00
2022-12-18T00:27:23.642Z,102433.19
2022-12-18T00:29:25.380Z,102429.66
2022-12-18T00:31:27.904Z,102423.84
2022-12-18T00:33:29.934Z,102407.38
2022-12-18T00:35:32.914Z,102410.78
2022-12-18T00:37:35.749Z,102437.38
2022-12-18T00:39:37.520Z,102407.28
2022-12-18T00:41:39.273Z,102445.91
2022-12-18T00:43:41.891Z,102450.38
2022-12-18T00:45:43.977Z,102434.03
2022-12-18T00:47:46.681Z,102409.97
2022-12-18T00:49:48.600Z,102447.91
2022-12-18T00:51:50.730Z,102458.91
2022-12-18T00:53:52.590Z,102429.03
2022-12-18T00:55:54.481Z,102460.84
2022-12-18T00:57:56.327Z,102445.44
2022-12-18T00:59:58.001Z,102473.66
2022-12-18T01:02:00.108Z,102465.16
2022-12-18T01:04:03.702Z,102491.88
2022-12-18T01:06:09.081Z,102491.13
2022-12-18T01:08:11.084Z,102491.94
2022-12-18T01:10:13.850Z,102491.03
2022-12-18T01:12:15.553Z,102491.00
2022-12-18T01:14:17.353Z,102482.53
2022-12-18T01:16:19.524Z,102458.31
2022-12-18T01:18:21.280Z,102466.19
2022-12-18T01:20:22.975Z,102479.94
2022-12-18T01:22:24.839Z,102498.84
2022-12-18T01:24:26.744Z,102474.75
2022-12-18T01:26:29.056Z,102497.19
2022-12-18T01:28:30.952Z,102473.03
2022-12-18T01:30:32.714Z,102491.94
2022-12-18T01:32:34.902Z,102476.66
2022-12-18T01:34:38.288Z,102505.84
2022-12-18T01:36:40.066Z,102512.75
2022-12-18T01:38:41.989Z,102510.09
2022-12-18T01:40:43.790Z,102517.88
2022-12-18T01:42:45.504Z,102521.31
2022-12-18T01:44:59.224Z,102521.47
2022-12-18T01:47:01.394Z,102523.94
2022-12-18T01:49:03.244Z,102532.69
2022-12-18T01:51:07.207Z,102536.94
2022-12-18T01:53:19.321Z,102543.94
2022-12-18T01:55:24.857Z,102546.38
2022-12-18T01:57:28.148Z,102543.91
2022-12-18T01:59:32.084Z,102549.91
2022-12-18T02:01:34.608Z,102549.13
2022-12-18T02:03:36.882Z,102547.22
2022-12-18T02:06:14.543Z,102538.63
2022-12-18T02:08:31.876Z,102550.03
2022-12-18T02:10:43.749Z,102540.41
2022-12-18T02:13:02.873Z,102523.19
2022-12-18T02:15:13.975Z,102557.69
2022-12-18T02:17:19.323Z,102555.91
2022-12-18T02:19:42.150Z,102563.78
2022-12-18T02:22:08.065Z,102556.03
2022-12-18T02:24:26.674Z,102547.44
2022-12-18T02:26:38.675Z,102573.28
2022-12-18T02:28:50.391Z,102579.34
2022-12-18T02:30:54.777Z,102577.56
2022-12-18T02:32:59.653Z,102563.63
2022-12-18T02:35:03.377Z,102578.19
2022-12-18T02:37:20.377Z,102574.84
2022-12-18T02:39:24.826Z,102592.13
2022-12-18T02:41:27.153Z,102569.88
2022-12-18T02:43:31.060Z,102594.78
2022-12-18T02:45:32.828Z,102605.19
2022-12-18T02:47:39.238Z,102587.13
2022-12-18T02:49:55.859Z,102612.94
2022-12-18T02:52:16.353Z,102619.03
2022-12-18T02:54:51.394Z,102619.72
2022-12-18T02:56:57.524Z,102624.00
2022-12-18T02:59:04.679Z,102617.94
2022-12-18T03:01:42.111Z,102625.78
2022-12-18T03:03:53.214Z,102619.69
2022-12-18T03:06:02.193Z,102635.19
2022-12-18T03:08:13.459Z,102632.59
2022-12-18T03:10:20.811Z,102611.94
2022-12-18T03:12:36.046Z,102588.69
2022-12-18T03:14:41.319Z,102600.72
2022-12-18T03:16:45.738Z,102614.38
2022-12-18T03:18:55.782Z,102590.22
2022-12-18T03:21:01.409Z,102640.22
2022-12-18T03:23:12.568Z,102600.56
2022-12-18T03:25:16.450Z,102636.63
2022-12-18T03:27:21.384Z,102626.31
2022-12-18T03:29:28.957Z,102630.63
2022-12-18T03:31:33.778Z,102628.75
2022-12-18T03:34:08.129Z,102634.91
2022-12-18T03:36:09.999Z,102638.44
2022-12-18T03:38:12.672Z,102640.28
2022-12-18T03:40:14.549Z,102649.66
2022-12-18T03:42:39.465Z,102614.28
2022-12-18T03:45:22.503Z,102633.25
2022-12-18T03:47:33.947Z,102656.72
2022-12-18T03:49:47.644Z,102660.97
2022-12-18T03:51:49.280Z,102654.13
2022-12-18T03:54:01.065Z,102667.16
2022-12-18T03:56:04.972Z,102664.56
2022-12-18T03:58:08.852Z,102669.66
2022-12-18T04:00:14.631Z,102633.50
2022-12-18T04:02:19.007Z,102674.00
2022-12-18T04:04:22.684Z,102682.69
2022-12-18T04:06:24.711Z,102689.56
2022-12-18T04:08:26.961Z,102687.09
2022-12-18T04:10:29.074Z,102662.84
2022-12-18T04:12:30.977Z,102686.34
2022-12-18T04:14:32.906Z,102698.38
2022-12-18T04:16:34.658Z,102712.22
2022-12-18T04:18:36.814Z,102712.19
2022-12-18T04:20:38.638Z,102676.88
2022-12-18T04:22:40.310Z,102715.63
2022-12-18T04:24:42.960Z,102708.72
2022-12-18T04:26:44.795Z,102713.09
2022-12-18T04:28:46.552Z,102713.84
2022-12-18T04:30:48.328Z,102695.75
2022-12-18T04:32:52.381Z,102715.63
2022-12-18T04:34:54.376Z,102730.31
2022-12-18T04:36:56.069Z,102720.78
2022-12-18T04:38:58.199Z,102701.03
2022-12-18T04:40:59.968Z,102700.22
2022-12-18T04:43:01.718Z,102727.72
2022-12-18T04:45:04.015Z,102738.00
2022-12-18T04:47:05.974Z,102740.59
2022-12-18T04:49:07.678Z,102744.03
2022-12-18T04:51:09.545Z,102741.44
2022-12-18T04:53:11.393Z,102715.59
2022-12-18T04:55:13.055Z,102743.19
2022-12-18T04:57:14.993Z,102726.06
2022-12-18T04:59:16.738Z,102701.00
2022-12-18T05:01:19.521Z,102755.25
2022-12-18T05:03:21.477Z,102759.56
2022-12-18T05:05:23.363Z,102740.69
2022-12-18T05:07:25.167Z,102731.16
2022-12-18T05:09:26.978Z,102720.91
2022-12-18T05:11:28.957Z,102739.78
2022-12-18T05:13:31.016Z,102756.16
2022-12-18T05:15:34.066Z,102759.72
2022-12-18T05:17:36.001Z,102757.13
2022-12-18T05:19:37.692Z,102759.66
2022-12-18T05:21:39.418Z,102724.44
2022-12-18T05:23:41.682Z,102754.63
2022-12-18T05:25:44.018Z,102765.78
2022-12-18T05:27:47.611Z,102774.41
2022-12-18T05:29:49.518Z,102751.97
2022-12-18T05:31:51.281Z,102780.47
2022-12-18T05:33:53.294Z,102777.88
2022-12-18T05:35:58.134Z,102748.59
2022-12-18T05:37:59.862Z,102785.69
2022-12-18T05:40:02.665Z,102786.47
2022-12-18T05:42:04.414Z,102790.75
2022-12-18T05:44:12.189Z,102773.50
2022-12-18T05:46:17.800Z,102790.72
2022-12-18T05:48:20.283Z,102769.09
2022-12-18T05:50:22.004Z,102789.78
2022-12-18T05:52:24.129Z,102789.84
2022-12-18T05:54:28.462Z,102792.53
2022-12-18T05:56:30.139Z,102789.97
2022-12-18T05:58:32.888Z,102790.00
2022-12-18T06:00:36.518Z,102709.84
2022-12-18T06:02:38.293Z,102784.00
2022-12-18T06:04:40.703Z,102764.19
2022-12-18T06:06:42.561Z,102805.53
2022-12-18T06:08:46.837Z,102805.59
2022-12-18T06:10:53.357Z,102790.09
2022-12-18T06:12:55.575Z,102787.44
2022-12-18T06:14:57.235Z,102767.53
2022-12-18T06:16:59.095Z,102820.16
2022-12-18T06:19:02.583Z,102819.25
2022-12-18T06:21:04.249Z,102816.69
2022-12-18T06:23:06.168Z,102805.59
2022-12-18T06:25:08.434Z,102815.13
2022-12-18T06:27:10.481Z,102828.94
2022-12-18T06:29:12.481Z,102833.25
2022-12-18T06:31:14.357Z,102841.03
2022-12-18T06:33:17.193Z,102841.91
2022-12-18T06:35:18.882Z,102800.50
2022-12-18T06:37:23.888Z,102848.84
2022-12-18T06:39:28.009Z,102836.75
2022-12-18T06:41:29.864Z,102860.97
2022-12-18T06:43:31.542Z,102867.03
2022-12-18T06:45:33.355Z,102848.00
2022-12-18T06:47:35.374Z,102866.13
2022-12-18T06:49:37.066Z,102879.09
2022-12-18T06:51:39.387Z,102840.25
2022-12-18T06:53:41.439Z,102882.50
2022-12-18T06:55:43.800Z,102882.59
2022-12-18T06:57:45.763Z,102862.75
2022-12-18T06:59:47.535Z,102895.56
2022-12-18T07:01:49.375Z,102884.34
2022-12-18T07:03:56.303Z,102905.06
2022-12-18T07:05:58.051Z,102896.44
2022-12-18T07:08:00.084Z,102905.03
2022-12-18T07:10:01.850Z,102885.19
2022-12-18T07:12:03.724Z,102883.50
2022-12-18T07:14:05.423Z,102911.94
2022-12-18T07:16:18.453Z,102925.78
2022-12-18T07:18:24.453Z,102909.34
2022-12-18T07:20:26.149Z,102919.72
2022-12-18T07:22:28.126Z,102912.81
2022-12-18T07:24:29.940Z,102915.41
2022-12-18T07:26:31.606Z,102905.91
2022-12-18T07:28:34.544Z,102918.84
2022-12-18T07:30:38.769Z,102954.25
2022-12-18T07:32:40.443Z,102949.94
2022-12-18T07:34:42.448Z,102956.00
2022-12-18T07:36:44.332Z,102964.66
2022-12-18T07:38:48.832Z,102962.03
2022-12-18T07:40:50.654Z,102962.03
2022-12-18T07:42:52.459Z,102962.91
2022-12-18T07:45:01.510Z,102969.84
2022-12-18T07:47:06.541Z,102941.34
2022-12-18T07:49:10.906Z,102977.59
2022-12-18T07:51:12.632Z,102953.41
2022-12-18T07:53:14.603Z,102947.41
2022-12-18T07:55:16.516Z,102949.09
2022-12-18T07:57:48.497Z,102971.56
2022-12-18T07:59:40.441Z,102972.44
2022-12-18T08:01:42.303Z,102962.06
2022-12-18T08:03:44.645Z,102938.72
2022-12-18T08:05:46.632Z,102956.91
2022-12-18T08:07:48.410Z,102985.41
2022-12-18T08:09:50.153Z,102981.94
2022-12-18T08:11:51.935Z,102964.69
2022-12-18T08:13:54.708Z,102981.06
2022-12-18T08:16:04.558Z,102987.09
2022-12-18T08:18:10.079Z,102975.00
2022-12-18T08:20:14.835Z,102967.25
2022-12-18T08:22:16.626Z,102984.53
2022-12-18T08:24:18.452Z,102983.63
2022-12-18T08:26:21.253Z,102999.19
2022-12-18T08:28:23.598Z,103006.97
2022-12-18T08:30:25.318Z,102990.56
2022-12-18T08:32:29.054Z,103002.66
2022-12-18T08:34:30.805Z,103010.44
2022-12-18T08:36:32.621Z,102974.16
2022-12-18T08:38:34.722Z,102984.50
2022-12-18T08:40:36.425Z,103001.81
2022-12-18T08:42:38.300Z,102992.31
2022-12-18T08:44:40.070Z,103016.50
2022-12-18T08:46:43.417Z,102984.50
2022-12-18T08:48:45.313Z,103019.09
2022-12-18T08:50:57.904Z,103021.69
2022-12-18T08:52:59.629Z,102976.75
2022-12-18T08:55:01.640Z,103018.22
2022-12-18T08:57:03.623Z,103018.22
2022-12-18T08:59:05.450Z,103006.97
2022-12-18T09:01:09.525Z,103026.88
2022-12-18T09:03:20.236Z,103010.44
2022-12-18T09:05:22.003Z,103010.44
2022-12-18T09:07:24.436Z,103006.13
2022-12-18T09:09:26.244Z,103022.50
2022-12-18T09:11:29.707Z,103047.56
2022-12-18T09:13:32.038Z,103049.25
2022-12-18T09:15:33.833Z,103034.56
2022-12-18T09:17:35.499Z,103036.34
2022-12-18T09:19:37.283Z,103033.75
2022-12-18T09:21:40.250Z,103055.31
2022-12-18T09:23:46.740Z,103058.78
2022-12-18T09:25:48.608Z,103061.38
2022-12-18T09:27:50.439Z,103053.63
2022-12-18T09:29:52.132Z,103050.13
2022-12-18T09:31:54.016Z,103037.19
2022-12-18T09:33:56.990Z,103052.69
2022-12-18T09:35:58.685Z,103025.91
2022-12-18T09:38:00.637Z,103052.66
2022-12-18T09:40:02.424Z,103061.38
2022-12-18T09:42:04.494Z,103032.91
2022-12-18T09:44:23.998Z,103068.34
2022-12-18T09:46:37.028Z,103064.00
2022-12-18T09:48:46.370Z,103044.09
2022-12-18T09:50:49.484Z,103057.91
2022-12-18T09:52:56.276Z,103030.19
2022-12-18T09:55:04.676Z,103050.00
2022-12-18T09:57:06.440Z,103030.13
2022-12-18T09:59:19.440Z,103051.72
2022-12-18T10:01:23.943Z,103045.69
2022-12-18T10:03:25.891Z,103046.69
2022-12-18T10:05:35.950Z,103051.03
2022-12-18T10:07:54.770Z,103025.97
2022-12-18T10:10:11.854Z,103045.84
2022-12-18T10:12:16.600Z,103057.78
2022-12-18T10:14:48.087Z,103060.31
2022-12-18T10:17:06.648Z,103053.34
2022-12-18T10:19:32.723Z,103061.25
2022-12-18T10:21:57.549Z,103062.09
2022-12-18T10:24:14.360Z,103063.81
2022-12-18T10:26:16.395Z,103046.50
2022-12-18T10:28:20.457Z,103062.09
2022-12-18T10:30:23.983Z,103063.03
2022-12-18T10:32:29.813Z,103066.41
2022-12-18T10:34:31.524Z,103064.66
2022-12-18T10:36:33.192Z,103067.22
2022-12-18T10:38:35.359Z,103053.47
2022-12-18T10:41:04.570Z,103056.03
2022-12-18T10:43:13.515Z,103066.44
2022-12-18T10:45:17.505Z,103060.34
2022-12-18T10:47:20.232Z,103021.47
2022-12-18T10:49:31.044Z,103057.88
2022-12-18T10:51:35.635Z,103061.28
2022-12-18T10:53:38.552Z,103063.06
2022-12-18T10:55:47.004Z,103041.41
2022-12-18T10:57:48.855Z,103063.03
2022-12-18T10:59:56.087Z,103052.69
2022-12-18T11:01:59.450Z,103040.63
2022-12-18T11:04:03.871Z,103057.09
2022-12-18T11:06:16.956Z,103047.56
2022-12-18T11:08:22.813Z,103034.59
2022-12-18T11:10:37.625Z,103047.59
2022-12-18T11:12:39.375Z,103029.41
2022-12-18T11:14:48.640Z,103029.31
2022-12-18T11:19:26.105Z,103052.72
2022-12-18T11:21:27.682Z,103055.31
2022-12-18T11:23:29.508Z,103049.28
2022-12-18T11:25:32.951Z,103023.38
2022-12-18T11:27:35.663Z,103033.78
2022-12-18T11:29:44.938Z,103063.16
2022-12-18T11:31:48.586Z,103040.69
2022-12-18T11:34:28.093Z,103012.16
2022-12-18T11:36:32.700Z,103061.41
2022-12-18T11:38:39.242Z,103063.16
2022-12-18T11:40:44.698Z,103036.31
2022-12-18T11:43:11.811Z,103050.94
2022-12-18T11:45:13.620Z,103059.66
2022-12-18T11:47:22.231Z,103059.69
2022-12-18T11:49:29.883Z,103067.47
2022-12-18T11:51:38.497Z,103066.63
2022-12-18T11:53:40.207Z,103063.13
2022-12-18T11:55:48.561Z,103038.97
2022-12-18T11:58:03.658Z,103045.88
2022-12-18T12:00:20.600Z,103076.09
2022-12-18T12:02:43.911Z,103080.47
2022-12-18T12:05:04.644Z,103087.38
2022-12-18T12:07:32.389Z,103095.16
2022-12-18T12:09:56.035Z,103097.72
2022-12-18T12:11:57.898Z,103105.53
2022-12-18T12:14:08.817Z,103113.28
2022-12-18T12:16:28.378Z,103090.69
2022-12-18T12:18:48.411Z,103108.09
2022-12-18T12:21:23.883Z,103115.03
2022-12-18T12:23:34.940Z,103125.34
2022-12-18T12:25:44.713Z,103110.69
2022-12-18T12:28:04.699Z,103139.19
2022-12-18T12:30:10.621Z,103127.06
2022-12-18T12:32:29.779Z,103130.56
2022-12-18T12:34:57.883Z,103137.41
2022-12-18T12:37:07.617Z,103130.53
2022-12-18T12:39:17.400Z,103128.81
2022-12-18T12:41:23.314Z,103113.22
2022-12-18T12:43:49.464Z,103140.94
2022-12-18T12:46:07.527Z,103119.31
2022-12-18T12:48:32.426Z,103146.03
2022-12-18T12:50:36.625Z,103154.78
2022-12-18T12:52:52.838Z,103149.66
2022-12-18T12:54:55.515Z,103124.53
2022-12-18T12:57:13.850Z,103141.00
2022-12-18T12:59:47.272Z,103141.00
2022-12-18T13:01:51.576Z,103152.22
2022-12-18T13:04:13.782Z,103149.66
2022-12-18T13:06:44.284Z,103079.50
2022-12-18T13:09:00.855Z,103154.78
2022-12-18T13:11:03.141Z,103129.72
2022-12-18T13:13:09.190Z,103120.16
2022-12-18T13:15:24.506Z,103147.84
2022-12-18T13:17:30.516Z,103143.56
2022-12-18T13:19:32.293Z,103125.38
2022-12-18T13:21:35.622Z,103135.69
2022-12-18T13:23:38.383Z,103093.28
2022-12-18T13:25:41.270Z,103121.88
2022-12-18T13:27:46.008Z,103139.91
2022-12-18T13:29:47.904Z,103114.78
2022-12-18T13:31:49.984Z,103143.31
2022-12-18T13:34:25.149Z,103124.25
2022-12-18T13:36:15.339Z,103150.09
2022-12-18T13:38:24.293Z,103152.63
2022-12-18T13:40:41.382Z,103152.59
2022-12-18T13:42:43.313Z,103131.72
2022-12-18T13:44:45.935Z,103160.31
2022-12-18T13:46:51.034Z,103162.88
2022-12-18T13:49:21.152Z,103169.69
2022-12-18T13:51:24.670Z,103144.63
2022-12-18T13:53:34.799Z,103182.81
2022-12-18T13:55:36.826Z,103168.13
2022-12-18T13:57:39.748Z,103141.22
2022-12-18T13:59:41.544Z,103194.09
2022-12-18T14:01:49.309Z,103194.00
2022-12-18T14:03:52.013Z,103193.97
2022-12-18T14:06:10.476Z,103196.50
2022-12-18T14:08:19.492Z,103209.47
2022-12-18T14:10:48.677Z,103207.03
2022-12-18T14:12:52.985Z,103201.66
2022-12-18T14:14:56.986Z,103192.09
2022-12-18T14:17:00.692Z,103169.50
2022-12-18T14:19:10.208Z,103213.50
2022-12-18T14:21:39.582Z,103227.00
2022-12-18T14:23:43.705Z,103227.91
2022-12-18T14:25:47.544Z,103234.81
2022-12-18T14:28:09.917Z,103233.09
2022-12-18T14:30:42.104Z,103235.63
2022-12-18T14:32:49.300Z,103232.94
2022-12-18T14:34:56.507Z,103229.59
2022-12-18T14:37:00.005Z,103235.69
2022-12-18T14:39:04.809Z,103230.63
2022-12-18T14:41:10.994Z,103237.44
2022-12-18T14:43:13.154Z,103228.75
2022-12-18T14:45:42.176Z,103228.91
2022-12-18T14:47:46.284Z,103198.56
2022-12-18T14:49:49.116Z,103230.44
2022-12-18T14:52:01.415Z,103207.91
2022-12-18T14:54:06.470Z,103232.06
2022-12-18T14:56:18.332Z,103231.16
2022-12-18T14:58:22.398Z,103204.09
2022-12-18T15:00:26.939Z,103182.44
2022-12-18T15:02:30.430Z,103223.13
2022-12-18T15:04:43.333Z,103226.69
2022-12-18T15:06:46.815Z,103221.56
2022-12-18T15:08:51.192Z,103217.19
2022-12-18T15:10:53.543Z,103224.94
2022-12-18T15:12:58.541Z,103230.00
2022-12-18T15:15:00.566Z,103235.28
2022-12-18T15:17:06.168Z,103233.25
2022-12-18T15:19:10.516Z,103239.25
2022-12-18T15:21:19.194Z,103214.22
2022-12-18T15:23:25.074Z,103251.16
2022-12-18T15:25:37.763Z,103242.38
2022-12-18T15:27:51.710Z,103251.81
2022-12-18T15:30:20.718Z,103201.34
2022-12-18T15:32:26.944Z,103256.97
2022-12-18T15:34:29.611Z,103231.97
2022-12-18T15:36:31.525Z,103250.19
2022-12-18T15:38:38.636Z,103224.81
2022-12-18T15:40:41.936Z,103213.56
2022-12-18T15:42:48.301Z,103252.56
2022-12-18T15:44:55.913Z,103223.69
2022-12-18T15:46:58.465Z,103240.88
2022-12-18T15:49:02.637Z,103223.66
2022-12-18T15:51:06.534Z,103260.97
2022-12-18T15:53:11.076Z,103256.72
2022-12-18T15:55:15.619Z,103246.31
2022-12-18T15:57:20.039Z,103265.31
2022-12-18T15:59:25.090Z,103261.03
2022-12-18T16:01:30.541Z,103263.66
2022-12-18T16:03:32.660Z,103224.38
2022-12-18T16:05:35.710Z,103268.56
2022-12-18T16:07:37.467Z,103272.94
2022-12-18T16:09:39.302Z,103220.56
2022-12-18T16:11:43.894Z,103276.69
2022-12-18T16:13:45.648Z,103233.38
2022-12-18T16:15:48.126Z,103274.16
2022-12-18T16:17:49.914Z,103267.78
2022-12-18T16:19:51.603Z,103273.16
2022-12-18T16:21:57.218Z,103274.38
2022-12-18T16:23:59.004Z,103246.59
2022-12-18T16:26:00.959Z,103276.22
2022-12-18T16:28:04.081Z,103253.78
2022-12-18T16:30:08.099Z,103283.31
2022-12-18T16:32:14.972Z,103277.63
2022-12-18T16:34:35.245Z,103265.84
2022-12-18T16:36:38.337Z,103273.69
2022-12-18T16:38:41.660Z,103258.09
2022-12-18T16:40:45.797Z,103262.28
2022-12-18T16:42:47.991Z,103274.91
2022-12-18T16:44:50.866Z,103285.47
2022-12-18T16:46:53.249Z,103280.06
2022-12-18T16:48:55.485Z,103285.41
2022-12-18T16:51:08.901Z,103282.09
2022-12-18T16:53:13.840Z,103274.34
2022-12-18T16:55:16.248Z,103241.44
2022-12-18T16:57:22.673Z,103295.16
2022-12-18T16:59:27.950Z,103292.16
2022-12-18T17:01:31.915Z,103307.31
2022-12-18T17:03:33.864Z,103260.28
2022-12-18T17:05:40.080Z,103282.03
2022-12-18T17:07:42.308Z,103288.78
2022-12-18T17:09:44.651Z,103258.41
2022-12-18T17:11:47.440Z,103302.81
2022-12-18T17:13:51.790Z,103293.47
2022-12-18T17:15:54.815Z,103291.97
2022-12-18T17:17:57.777Z,103293.44
2022-12-18T17:20:01.085Z,103235.78
2022-12-18T17:22:04.053Z,103268.97
2022-12-18T17:24:07.809Z,103274.22
2022-12-18T17:26:12.065Z,103282.88
2022-12-18T17:28:16.511Z,103271.44
2022-12-18T17:30:21.148Z,103279.56
2022-12-18T17:32:23.188Z,103253.69
2022-12-18T17:34:26.538Z,103278.00
2022-12-18T17:36:29.041Z,103266.69
2022-12-18T17:38:31.971Z,103280.28
2022-12-18T17:40:34.533Z,103249.88
2022-12-18T17:42:38.559Z,103259.47
2022-12-18T17:44:40.498Z,103260.22
2022-12-18T17:46:44.218Z,103256.00
2022-12-18T17:48:47.701Z,103254.41
2022-12-18T17:50:49.700Z,103218.88
2022-12-18T17:52:57.465Z,103233.81
2022-12-18T17:54:59.619Z,103238.31
2022-12-18T17:57:01.607Z,103246.81
2022-12-18T17:59:04.620Z,103259.06
2022-12-18T18:01:07.160Z,103237.28
2022-12-18T18:03:09.024Z,103263.25
2022-12-18T18:05:11.129Z,103257.38
2022-12-18T18:07:13.972Z,103266.09
2022-12-18T18:09:16.934Z,103246.94
2022-12-18T18:11:21.273Z,103240.97
2022-12-18T18:13:25.626Z,103254.88
2022-12-18T18:15:27.351Z,103245.41
2022-12-18T18:17:29.031Z,103208.84
2022-12-18T18:19:30.735Z,103253.06
2022-12-18T18:21:37.862Z,103257.34
2022-12-18T18:23:40.724Z,103264.13
2022-12-18T18:25:44.261Z,103268.16
2022-12-18T18:27:46.119Z,103257.97
2022-12-18T18:29:49.099Z,103240.88
2022-12-18T18:31:50.889Z,103235.59
2022-12-18T18:33:52.768Z,103253.09
2022-12-18T18:35:55.044Z,103248.97
2022-12-18T18:37:56.921Z,103215.16
2022-12-18T18:39:58.649Z,103212.41
2022-12-18T18:42:00.533Z,103208.91
2022-12-18T18:44:02.532Z,103208.19
2022-12-18T18:46:05.726Z,103250.81
2022-12-18T18:48:07.490Z,103232.69
2022-12-18T18:50:09.902Z,103222.47
2022-12-18T18:52:11.609Z,103228.53
2022-12-18T18:54:13.559Z,103192.16
2022-12-18T18:58:40.738Z,103241.53
2022-12-18T19:00:42.498Z,103246.66
2022-12-18T19:02:45.510Z,103242.22
2022-12-18T19:04:47.445Z,103228.50
2022-12-18T19:06:49.178Z,103222.59
2022-12-18T19:08:52.172Z,103216.66
2022-12-18T19:10:57.912Z,103225.16
2022-12-18T19:12:59.799Z,103210.31
2022-12-18T19:15:01.575Z,103241.50
2022-12-18T19:17:03.355Z,103224.31
2022-12-18T19:19:06.589Z,103239.91
2022-12-18T19:21:08.263Z,103249.47
2022-12-18T19:23:10.520Z,103229.53
2022-12-18T19:25:13.513Z,103269.19
2022-12-18T19:27:15.319Z,103247.53
2022-12-18T19:29:17.018Z,103271.41
2022-12-18T19:31:24.842Z,103250.44
2022-12-18T19:33:45.658Z,103253.69
2022-12-18T19:35:47.955Z,103288.97
2022-12-18T19:37:49.790Z,103293.94
2022-12-18T19:39:51.592Z,103296.50
2022-12-18T19:41:53.351Z,103294.78
2022-12-18T19:43:56.054Z,103299.94
2022-12-18T19:45:57.865Z,103277.28
2022-12-18T19:48:04.073Z,103276.31
2022-12-18T19:50:06.905Z,103288.47
2022-12-18T19:52:08.642Z,103279.91
2022-12-18T19:54:16.230Z,103322.34
2022-12-18T19:56:21.511Z,103323.31
2022-12-18T19:58:23.371Z,103292.34
2022-12-18T20:00:26.748Z,103277.75
2022-12-18T20:02:28.591Z,103267.31
2022-12-18T20:04:30.465Z,103297.50
2022-12-18T20:06:52.766Z,103316.13
2022-12-18T20:09:00.067Z,103317.53
2022-12-18T20:11:02.487Z,103315.91
2022-12-18T20:13:04.854Z,103336.22
2022-12-18T20:15:07.153Z,103338.91
2022-12-18T20:17:08.936Z,103318.16
2022-12-18T20:19:13.204Z,103303.50
2022-12-18T20:21:15.995Z,103336.81
2022-12-18T20:23:17.719Z,103316.75
2022-12-18T20:25:19.532Z,103302.09
2022-12-18T20:27:21.626Z,103275.56
2022-12-18T20:29:25.051Z,103271.88
2022-12-18T20:31:26.853Z,103302.22
2022-12-18T20:33:28.754Z,103306.44
2022-12-18T20:35:32.603Z,103289.94
2022-12-18T20:37:34.304Z,103262.28
2022-12-18T20:39:39.237Z,103287.63
2022-12-18T20:41:41.303Z,103271.22
2022-12-18T20:43:43.547Z,103252.66
2022-12-18T20:45:45.762Z,103272.53
2022-12-18T20:47:48.741Z,103240.31
2022-12-18T20:49:50.498Z,103242.00
2022-12-18T20:51:56.826Z,103245.41
2022-12-18T20:53:58.523Z,103257.31
2022-12-18T20:56:00.327Z,103238.41
2022-12-18T20:58:02.065Z,103185.41
2022-12-18T21:00:04.312Z,103249.78
2022-12-18T21:02:06.433Z,103260.28
2022-12-18T21:04:08.283Z,103269.19
2022-12-18T21:06:10.514Z,103232.59
2022-12-18T21:08:12.876Z,103265.13
2022-12-18T21:10:16.768Z,103280.56
2022-12-18T21:12:18.477Z,103281.47
2022-12-18T21:14:28.851Z,103290.81
2022-12-18T21:16:30.822Z,103275.09
2022-12-18T21:18:32.724Z,103246.38
2022-12-18T21:20:34.509Z,103288.88
2022-12-18T21:22:36.363Z,103276.53
2022-12-18T21:24:38.130Z,103256.63
2022-12-18T21:26:45.398Z,103271.28
2022-12-18T21:28:52.662Z,103274.84
2022-12-18T21:30:54.388Z,103271.53
2022-12-18T21:32:56.187Z,103282.88
2022-12-18T21:34:58.159Z,103250.59
2022-12-18T21:37:01.587Z,103277.63
2022-12-18T21:39:03.966Z,103249.94
2022-12-18T21:41:10.723Z,103273.47
2022-12-18T21:43:16.082Z,103268.38
2022-12-18T21:45:19.603Z,103256.19
2022-12-18T21:47:23.225Z,103258.75
2022-12-18T21:49:25.458Z,103249.94
2022-12-18T21:51:27.337Z,103252.81
2022-12-18T21:53:29.063Z,103258.75
2022-12-18T21:55:30.749Z,103226.88
2022-12-18T21:57:32.433Z,103261.44
2022-12-18T21:59:39.336Z,103235.97
2022-12-18T22:01:41.252Z,103233.16
2022-12-18T22:03:43.179Z,103248.50
2022-12-18T22:05:45.805Z,103251.47
2022-12-18T22:07:49.163Z,103241.63
2022-12-18T22:09:50.894Z,103250.66
2022-12-18T22:11:53.408Z,103240.16
2022-12-18T22:13:55.172Z,103244.50
2022-12-18T22:15:56.914Z,103204.41
2022-12-18T22:18:00.080Z,103206.03
2022-12-18T22:20:02.255Z,103231.06
2022-12-18T22:22:03.975Z,103214.88
2022-12-18T22:24:08.902Z,103222.66
2022-12-18T22:26:10.878Z,103208.13
2022-12-18T22:28:14.149Z,103220.28
2022-12-18T22:30:20.870Z,103091.00
2022-12-18T22:32:30.553Z,103232.53
2022-12-18T22:34:36.519Z,103183.78
2022-12-18T22:36:41.716Z,103226.34
2022-12-18T22:38:43.396Z,103230.59
2022-12-18T22:40:45.087Z,103229.84
2022-12-18T22:42:47.105Z,103193.25
2022-12-18T22:44:52.229Z,103183.13
2022-12-18T22:47:00.810Z,103216.94
2022-12-18T22:49:12.900Z,103223.00
2022-12-18T22:51:16.836Z,103202.25
2022-12-18T22:53:18.616Z,103218.00
2022-12-18T22:55:20.617Z,103189.34
2022-12-18T22:57:23.286Z,103188.41
2022-12-18T22:59:25.076Z,103220.72
2022-12-18T23:01:29.397Z,103178.19
2022-12-18T23:03:34.653Z,103187.94
2022-12-18T23:05:36.461Z,103188.03
2022-12-18T23:07:38.387Z,103183.66
2022-12-18T23:09:40.604Z,103209.38
2022-12-18T23:11:42.568Z,103205.16
2022-12-18T23:13:44.538Z,103174.88
2022-12-18T23:15:46.395Z,103206.81
2022-12-18T23:17:48.163Z,103176.47
2022-12-18T23:19:49.967Z,103200.78
2022-12-18T23:21:52.197Z,103182.66
2022-12-18T23:23:56.525Z,103168.09
2022-12-18T23:26:03.589Z,103179.25
2022-12-18T23:28:05.788Z,103171.53
2022-12-18T23:30:08.107Z,103183.44
2022-12-18T23:32:10.068Z,103156.66
2022-12-18T23:34:13.697Z,103195.81
2022-12-18T23:36:16.666Z,103183.78
2022-12-18T23:38:18.766Z,103134.31
2022-12-18T23:40:20.508Z,103159.41
2022-12-18T23:42:22.173Z,103186.28
2022-12-18T23:44:25.827Z,103186.44
2022-12-18T23:46:32.881Z,103168.53
2022-12-18T23:48:34.666Z,103169.25
2022-12-18T23:50:36.547Z,103169.63
2022-12-18T23:52:39.102Z,103170.72
2022-12-18T23:54:40.842Z,103130.66
2022-12-18T23:56:42.718Z,103163.38